Time;durP1;ratioP1;P1;durP2;ratioP2;P2;SDS_P1;SDS_P2;PMS_P1;PMS_P2;Temp;Humidity;BMP_temperature;BMP_pressure;BME280_temperature;BME280_humidity;BME280_pressure;Samples;Min_cycle;Max_cycle;Signal;HPM_P1;HPM_P2
2022/12/08 00:00:50;;;;;;;10.50;1.50;;;;;;;;;;5054424;28;20120;-69
2022/12/08 00:03:16;;;;;;;8.93;1.77;;;;;;;;;;5054179;28;20147;-69
2022/12/08 00:11:15;;;;;;;9.70;1.38;;;;;;;;;;5053967;28;20477;-69
2022/12/08 00:13:42;;;;;;;6.47;1.30;;;;;;;;;;5035922;28;20044;-70
2022/12/08 00:16:08;;;;;;;4.45;1.30;;;;;;;;;;5052663;28;20032;-70
2022/12/08 00:18:34;;;;;;;4.95;1.27;;;;;;;;;;5052462;28;20045;-70
2022/12/08 00:21:01;;;;;;;6.80;1.38;;;;;;;;;;5052563;28;20036;-70
2022/12/08 00:23:27;;;;;;;14.63;1.33;;;;;;;;;;5052291;28;20040;-70
2022/12/08 00:25:53;;;;;;;7.28;1.65;;;;;;;;;;5052848;28;20040;-70
2022/12/08 00:28:19;;;;;;;5.18;1.40;;;;;;;;;;5052582;28;20044;-69
2022/12/08 00:30:45;;;;;;;4.55;1.45;;;;;;;;;;5053779;28;20053;-69
2022/12/08 00:33:11;;;;;;;8.32;1.38;;;;;;;;;;5052553;28;20037;-70
2022/12/08 00:35:37;;;;;;;6.45;2.38;;;;;;;;;;5052649;28;20111;-70
2022/12/08 00:38:03;;;;;;;7.30;1.40;;;;;;;;;;5052288;28;20106;-70
2022/12/08 00:40:30;;;;;;;7.10;1.60;;;;;;;;;;5052310;28;20041;-70
2022/12/08 00:42:56;;;;;;;5.13;1.33;;;;;;;;;;5052339;28;20496;-70
2022/12/08 00:45:22;;;;;;;5.45;1.80;;;;;;;;;;5059391;28;20067;-70
2022/12/08 00:47:48;;;;;;;6.78;1.42;;;;;;;;;;5052182;28;20508;-70
2022/12/08 00:50:14;;;;;;;5.00;1.27;;;;;;;;;;5035675;28;20473;-70
2022/12/08 00:52:40;;;;;;;4.20;1.33;;;;;;;;;;5053529;28;20037;-70
2022/12/08 00:55:06;;;;;;;1.65;1.20;;;;;;;;;;5052136;28;20044;-69
2022/12/08 00:57:32;;;;;;;8.68;2.00;;;;;;;;;;5049328;28;20095;-69
2022/12/08 00:59:58;;;;;;;12.73;1.63;;;;;;;;;;5051377;28;20037;-70
2022/12/08 01:02:24;;;;;;;5.15;1.17;;;;;;;;;;5053160;28;20037;-70
2022/12/08 01:04:51;;;;;;;5.00;1.33;;;;;;;;;;5053136;28;20069;-69
2022/12/08 01:07:17;;;;;;;3.45;1.00;;;;;;;;;;5052162;28;20040;-69
2022/12/08 01:09:43;;;;;;;5.07;2.05;;;;;;;;;;5036088;28;20053;-69
2022/12/08 01:12:09;;;;;;;4.45;1.20;;;;;;;;;;5051697;28;20045;-69
2022/12/08 01:14:36;;;;;;;10.98;1.33;;;;;;;;;;5051703;28;20452;-69
2022/12/08 01:17:02;;;;;;;5.43;1.40;;;;;;;;;;5051286;28;20041;-69
2022/12/08 01:19:29;;;;;;;3.80;1.30;;;;;;;;;;5051390;28;20056;-69
2022/12/08 01:21:55;;;;;;;5.93;1.40;;;;;;;;;;5049295;28;20044;-69
2022/12/08 01:24:21;;;;;;;10.15;1.50;;;;;;;;;;5051692;28;20120;-69
2022/12/08 01:26:49;;;;;;;3.60;1.25;;;;;;;;;;5051362;28;20041;-69
2022/12/08 01:29:15;;;;;;;4.53;1.27;;;;;;;;;;5051513;28;20048;-69
2022/12/08 01:31:41;;;;;;;5.30;1.30;;;;;;;;;;5051332;28;20044;-70
2022/12/08 01:34:07;;;;;;;4.63;1.20;;;;;;;;;;5051334;28;20060;-70
2022/12/08 01:36:38;;;;;;;6.43;1.30;;;;;;;;;;5051497;28;20466;-69
2022/12/08 01:39:05;;;;;;;7.85;1.25;;;;;;;;;;5051087;28;21284;-69
2022/12/08 01:41:33;;;;;;;5.88;1.63;;;;;;;;;;5048765;28;20037;-69
2022/12/08 01:44:04;;;;;;;6.65;1.50;;;;;;;;;;5051148;28;20129;-70
2022/12/08 01:46:31;;;;;;;9.15;1.30;;;;;;;;;;5052525;28;20063;-70
2022/12/08 01:49:06;;;;;;;7.25;1.55;;;;;;;;;;5051484;28;20393;-70
2022/12/08 01:51:35;;;;;;;5.55;1.23;;;;;;;;;;5051003;28;20032;-70
2022/12/08 01:54:02;;;;;;;3.53;1.17;;;;;;;;;;5050977;28;20511;-70
2022/12/08 01:56:32;;;;;;;3.60;1.10;;;;;;;;;;5050822;28;20127;-69
2022/12/08 01:58:59;;;;;;;19.38;1.67;;;;;;;;;;5034336;28;20037;-69
2022/12/08 02:01:25;;;;;;;5.28;1.67;;;;;;;;;;5051149;28;20396;-70
2022/12/08 02:03:57;;;;;;;6.82;1.10;;;;;;;;;;5052336;28;20033;-70
2022/12/08 02:06:23;;;;;;;3.25;1.30;;;;;;;;;;5034399;28;20033;-69
2022/12/08 02:08:50;;;;;;;5.45;1.27;;;;;;;;;;5050561;28;20079;-69
2022/12/08 02:11:16;;;;;;;6.07;1.25;;;;;;;;;;5050378;28;20036;-69
2022/12/08 02:13:44;;;;;;;5.20;1.50;;;;;;;;;;5050975;28;20052;-69
2022/12/08 02:16:29;;;;;;;2.63;1.00;;;;;;;;;;5050911;28;20075;-69
2022/12/08 02:19:19;;;;;;;3.05;1.25;;;3.90;99.90;;;;;;5052084;28;20057;-69
2022/12/08 02:22:08;;;;;;;7.50;1.45;;;;;;;;;;5034321;28;20041;-70
2022/12/08 02:24:39;;;;;;;9.93;1.20;;;;;;;;;;5047823;28;20164;-69
2022/12/08 02:27:11;;;;;;;4.72;1.20;;;;;;;;;;5050567;28;20511;-70
2022/12/08 02:30:00;;;;;;;6.30;1.65;;;;;;;;;;5050590;28;20072;-69
2022/12/08 02:32:30;;;;;;;4.72;1.30;;;;;;;;;;5050243;28;20455;-69
2022/12/08 02:35:22;;;;;;;5.20;1.27;;;;;;;;;;5050638;28;20431;-69
2022/12/08 02:37:54;;;;;;;3.03;0.98;;;;;;;;;;5050456;28;20041;-69
2022/12/08 02:40:29;;;;;;;3.65;1.10;;;;;;;;;;5049613;28;20048;-69
2022/12/08 02:43:02;;;;;;;6.82;1.30;;;;;;;;;;5050683;28;20411;-69
2022/12/08 02:45:34;;;;;;;5.47;1.17;;;;;;;;;;5079304;28;20251;-69
2022/12/08 02:48:00;;;;;;;2.47;1.10;;;;;;;;;;5050392;28;20044;-69
2022/12/08 02:50:26;;;;;;;1.17;1.08;;;;;;;;;;5051559;28;20051;-69
2022/12/08 02:52:53;;;;;;;4.55;1.05;;;;;;;;;;5051890;28;20041;-69
2022/12/08 02:55:25;;;;;;;5.80;1.77;;;;;;;;;;5051653;28;20044;-69
2022/12/08 02:57:57;;;;;;;5.38;1.00;;;;;;;;;;5050434;28;20515;-69
2022/12/08 03:00:25;;;;;;;8.73;1.30;;;;;;;;;;5050220;28;20563;-69
2022/12/08 03:02:51;;;;;;;7.72;1.15;;;;;;;;;;5050223;28;20044;-69
2022/12/08 03:05:22;;;;;;;2.55;1.13;;;;;;;;;;5050000;28;20029;-69
2022/12/08 03:07:51;;;;;;;1.60;1.23;;;;;;;;;;5050218;28;20517;-69
2022/12/08 03:10:35;;;;;;;5.80;1.15;;;;;;;;;;5051379;28;20037;-69
2022/12/08 03:13:15;;;;;;;5.25;1.00;;;;;;;;;;5050113;28;20475;-69
2022/12/08 03:15:42;;;;;;;5.45;1.05;;;;;;;;;;5050047;28;20424;-70
2022/12/08 03:18:10;;;;;;;4.20;1.10;;;;;;;;;;5051259;28;20148;-70
2022/12/08 03:20:38;;;;;;;1.65;1.17;;;;;;;;;;5049960;28;20512;-70
2022/12/08 03:23:07;;;;;;;6.40;1.17;;;;;;;;;;5051609;28;20039;-69
2022/12/08 03:25:36;;;;;;;1.92;0.93;;;;;;;;;;5054961;28;20040;-70
2022/12/08 03:28:02;;;;;;;3.80;1.20;;;;;;;;;;5053908;28;20072;-69
2022/12/08 03:30:31;;;;;;;6.50;1.08;;;;;;;;;;5037045;28;20127;-69
2022/12/08 03:33:09;;;;;;;4.10;1.42;;;;;;;;;;5054171;28;20029;-69
2022/12/08 03:35:37;;;;;;;5.63;1.40;;;;;;;;;;5054832;28;20049;-69
2022/12/08 03:38:09;;;;;;;4.95;1.08;;;;;;;;;;5054522;28;20095;-69
2022/12/08 03:40:35;;;;;;;4.50;1.55;;;;;;;;;;5054556;28;20048;-69
2022/12/08 03:43:02;;;;;;;8.13;1.33;;;;;;;;;;5053371;28;20544;-69
2022/12/08 03:45:28;;;;;;;7.88;1.60;;;;;;;;;;5053358;28;20033;-69
2022/12/08 03:47:54;;;;;;;4.72;1.45;;;;;;;;;;5053742;28;20473;-69
2022/12/08 03:50:20;;;;;;;4.43;1.40;;;;;;;;;;5053120;28;20041;-69
2022/12/08 03:52:46;;;;;;;3.25;1.48;;;;;;;;;;5086096;28;20045;-70
2022/12/08 03:55:12;;;;;;;5.22;1.45;;;;;;;;;;5052646;28;20148;-70
2022/12/08 03:57:38;;;;;;;4.40;1.23;;;;;;;;;;5053413;28;20037;-70
2022/12/08 04:00:07;;;;;;;5.70;1.33;;;;;;;;;;5053563;28;20066;-70
2022/12/08 04:02:33;;;;;;;1.80;1.23;;;;;;;;;;5053086;28;20041;-69
2022/12/08 04:04:59;;;;;;;11.13;1.77;;;;;;;;;;5054241;28;20485;-69
2022/12/08 04:07:25;;;;;;;5.25;1.30;;;;;;;;;;5053115;28;20381;-69
2022/12/08 04:09:51;;;;;;;4.38;1.73;;;;;;;;;;5054294;28;20441;-69
2022/12/08 04:12:17;;;;;;;4.50;1.67;;;;;;;;;;5053148;28;20033;-70
2022/12/08 04:14:43;;;;;;;8.60;1.80;;;;;;;;;;5054056;28;20025;-70
2022/12/08 04:17:09;;;;;;;5.72;1.63;;;;;;;;;;5052963;28;20063;-70
2022/12/08 04:19:35;;;;;;;6.00;1.48;;;;;;;;;;5052526;28;20053;-66
2022/12/08 04:22:01;;;;;;;6.65;1.30;;;;;;;;;;5052614;28;20079;-66
2022/12/08 04:24:27;;;;;;;1.13;0.98;;;;;;;;;;5053871;28;20124;-66
2022/12/08 04:26:53;;;;;;;3.53;1.42;;;;;;;;;;5052426;28;20032;-66
2022/12/08 04:29:19;;;;;;;1.58;1.20;;;;;;;;;;5085126;28;20049;-66
2022/12/08 04:31:45;;;;;;;3.63;1.20;;;;;;;;;;5052433;28;20116;-66
2022/12/08 04:34:12;;;;;;;7.70;1.45;;;;;;;;;;5051571;28;20056;-66
2022/12/08 04:36:38;;;;;;;4.35;1.17;;;;;;;;;;5035876;28;20091;-66
2022/12/08 04:39:04;;;;;;;7.63;1.70;;;;;;;;;;5053504;28;20048;-66
2022/12/08 04:41:30;;;;;;;7.20;1.52;;;;;;;;;;5049958;28;20048;-66
2022/12/08 04:43:56;;;;;;;2.15;1.35;;;;;;;;;;5052450;28;20041;-66
2022/12/08 04:46:22;;;;;;;2.10;1.23;;;;;;;;;;5053453;28;20079;-66
2022/12/08 04:48:48;;;;;;;6.75;2.17;;;;;;;;;;5035617;28;20040;-66
2022/12/08 04:51:15;;;;;;;4.00;1.35;;;;;;;;;;5053170;28;20029;-66
2022/12/08 04:53:42;;;;;;;2.28;1.45;;;;;;;;;;5053223;28;20036;-66
2022/12/08 04:56:15;;;;;;;1.80;1.25;;;;;;;;;;5051896;28;20072;-66
2022/12/08 04:58:41;;;;;;;2.28;1.50;;;;;;;;;;5052071;28;20109;-66
2022/12/08 05:01:08;;;;;;;7.65;1.48;;;;;;;;;;5052126;28;20033;-66
2022/12/08 05:03:34;;;;;;;8.80;1.80;;;;;;;;;;5051813;28;20048;-66
2022/12/08 05:06:00;;;;;;;3.50;2.25;;;;;;;;;;5051774;28;20504;-66
2022/12/08 05:08:28;;;;;;;5.13;2.05;;;;;;;;;;5051556;28;20075;-66
2022/12/08 05:10:54;;;;;;;4.55;1.33;;;;;;;;;;5052850;28;20041;-66
2022/12/08 05:13:20;;;;;;;4.22;1.55;;;;;;;;;;5052988;28;20033;-66
2022/12/08 05:15:46;;;;;;;7.53;1.50;;;;;;;;;;5051617;28;20044;-66
2022/12/08 05:18:12;;;;;;;1.70;1.35;;;;;;;;;;5052496;28;20037;-66
2022/12/08 05:20:38;;;;;;;5.75;1.40;;;;;;;;;;5051963;28;20383;-66
2022/12/08 05:23:04;;;;;;;3.13;1.38;;;;;;;;;;5052659;28;20097;-66
2022/12/08 05:25:30;;;;;;;3.25;1.50;;;;;;;;;;5050561;28;20182;-66
2022/12/08 05:27:56;;;;;;;6.80;1.75;;;;;;;;;;5051623;28;20049;-66
2022/12/08 05:30:22;;;;;;;4.93;1.95;;;;;;;;;;5052702;28;20420;-66
2022/12/08 05:32:48;;;;;;;7.93;2.15;;;;;;;;;;5051429;28;20041;-66
2022/12/08 05:35:14;;;;;;;9.25;1.90;;;;;;;;;;5052477;28;20041;-66
2022/12/08 05:37:40;;;;;;;6.60;1.48;;;;;;;;;;5051089;28;20124;-66
2022/12/08 05:40:07;;;;;;;6.90;1.27;;;;;;;;;;5050900;28;20044;-66
2022/12/08 05:42:33;;;;;;;16.40;1.42;;;;;;;;;;5052355;28;20033;-66
2022/12/08 05:44:59;;;;;;;8.30;1.55;;;;;;;;;;5052477;28;20040;-66
2022/12/08 05:47:25;;;;;;;9.05;1.38;;;;;;;;;;5052466;28;20116;-66
2022/12/08 05:49:51;;;;;;;6.30;1.55;;;;;;;;;;5052651;28;20037;-69
2022/12/08 05:52:17;;;;;;;6.05;1.45;;;;;;;;;;5052333;28;20123;-69
2022/12/08 05:54:43;;;;;;;7.35;1.50;;;;;;;;;;5052275;28;20500;-70
2022/12/08 05:57:10;;;;;;;8.77;1.48;;;;;;;;;;5052074;28;20045;-69
2022/12/08 05:59:36;;;;;;;3.97;1.25;;;;;;;;;;5051338;28;20091;-70
2022/12/08 06:02:02;;;;;;;4.90;1.80;;;;;;;;;;5050923;28;20047;-70
2022/12/08 06:04:28;;;;;;;2.35;1.40;;;;;;;;;;5052432;28;20498;-70
2022/12/08 06:06:54;;;;;;;7.20;2.28;;;;;;;;;;5052126;28;20502;-69
2022/12/08 06:09:20;;;;;;;5.90;1.67;;;;;;;;;;5051059;28;20060;-69
2022/12/08 06:11:46;;;;;;;1.20;1.05;;;;;;;;;;5052281;28;20040;-70
2022/12/08 06:14:13;;;;;;;5.60;1.30;;;;;;;;;;5051634;28;20029;-69
2022/12/08 06:16:39;;;;;;;7.72;1.65;;;;;;;;;;5050763;28;20068;-69
2022/12/08 06:19:05;;;;;;;3.85;2.03;;;;;;;;;;5050317;28;20056;-70
2022/12/08 06:21:31;;;;;;;9.27;2.42;;;;;;;;;;5050795;28;20045;-70
2022/12/08 06:23:57;;;;;;;12.55;2.90;;;;;;;;;;5050945;28;20044;-69
2022/12/08 06:26:23;;;;;;;5.25;2.55;;;;;;;;;;5050646;28;20058;-69
2022/12/08 06:28:49;;;;;;;4.85;1.90;;;;;;;;;;5051705;28;20037;-70
2022/12/08 06:31:17;;;;;;;3.88;1.75;;;;;;;;;;5047231;28;20037;-70
2022/12/08 06:33:43;;;;;;;10.20;2.00;;;;;;;;;;5050541;28;20041;-69
2022/12/08 06:36:10;;;;;;;7.65;2.08;;;;;;;;;;5050261;28;20061;-70
2022/12/08 06:38:36;;;;;;;7.75;1.80;;;;;;;;;;5033585;28;20072;-69
2022/12/08 06:41:02;;;;;;;7.32;2.15;;;;;;;;;;5052203;28;20044;-70
2022/12/08 06:43:28;;;;;;;10.60;1.60;;;;;;;;;;5034255;28;20048;-69
2022/12/08 06:45:54;;;;;;;6.25;2.00;;;;;;;;;;5050431;28;20037;-69
2022/12/08 06:48:20;;;;;;;15.45;2.25;;;;;;;;;;5050103;28;20075;-70
2022/12/08 06:50:46;;;;;;;9.80;1.98;;;;;;;;;;5051691;28;20044;-70
2022/12/08 06:53:13;;;;;;;6.57;1.88;;;;;;;;;;5051761;28;20037;-70
2022/12/08 06:55:44;;;;;;;7.95;2.20;;;;;;;;;;5050711;28;20385;-70
2022/12/08 06:58:10;;;;;;;15.23;2.17;;;;;;;;;;5052226;28;20063;-70
2022/12/08 07:00:36;;;;;;;5.95;1.98;;;;;;;;;;5055588;28;20029;-70
2022/12/08 07:03:02;;;;;;;15.93;4.00;;;;;;;;;;5054577;28;20037;-70
2022/12/08 07:05:28;;;;;;;12.07;3.03;;;;;;;;;;5055435;28;20036;-70
2022/12/08 07:07:54;;;;;;;9.55;2.58;;;;;;;;;;5037348;28;20551;-70
2022/12/08 07:10:20;;;;;;;11.13;6.32;;;;;;;;;;5053748;28;20488;-70
2022/12/08 07:12:48;;;;;;;7.38;3.13;;;;;;;;;;5054033;28;20045;-69
2022/12/08 07:15:14;;;;;;;22.90;2.83;;;;;;;;;;5054146;28;20094;-69
2022/12/08 07:17:40;;;;;;;10.73;3.00;;;;;;;;;;5037270;28;20087;-69
2022/12/08 07:20:06;;;;;;;10.15;2.33;;;;;;;;;;5054616;28;20045;-69
2022/12/08 07:22:32;;;;;;;10.75;2.95;;;;;;;;;;5053617;28;20049;-70
2022/12/08 07:24:58;;;;;;;10.18;2.75;;;;;;;;;;5053738;28;20128;-70
2022/12/08 07:27:24;;;;;;;11.38;2.67;;;;;;;;;;5054959;28;20037;-70
2022/12/08 07:29:50;;;;;;;12.30;2.45;;;;;;;;;;5054889;28;20420;-70
2022/12/08 07:32:16;;;;;;;8.00;2.30;;;;;;;;;;5054646;28;20461;-70
2022/12/08 07:34:43;;;;;;;17.65;3.05;;;;;;;;;;5053389;28;20041;-70
2022/12/08 07:37:09;;;;;;;9.25;3.03;;;;;;;;;;5052945;28;20123;-70
2022/12/08 07:39:35;;;;;;;16.73;3.30;;;;;;;;;;5053210;28;20049;-70
2022/12/08 07:42:01;;;;;;;20.85;4.30;;;;;;;;;;5051933;28;20037;-70
2022/12/08 07:44:27;;;;;;;22.60;5.07;;;;;;;;;;5051618;28;20260;-66
2022/12/08 07:46:53;;;;;;;27.35;5.85;;;;;;;;;;5051709;28;20397;-67
2022/12/08 07:49:19;;;;;;;20.15;5.18;;;;;;;;;;5053243;28;20515;-66
2022/12/08 07:51:45;;;;;;;29.80;5.10;;;;;;;;;;5052948;28;20044;-66
2022/12/08 07:54:12;;;;;;;28.05;4.55;;;;;;;;;;5035918;28;20043;-66
2022/12/08 07:56:38;;;;;;;12.68;4.55;;;;;;;;;;5053047;28;20110;-66
2022/12/08 07:59:04;;;;;;;24.52;3.72;;;;;;;;;;5054374;28;20041;-66
2022/12/08 08:01:31;;;;;;;10.93;3.10;;;;;;;;;;5053115;28;20350;-66
2022/12/08 08:04:00;;;;;;;11.48;3.28;;;;;;;;;;5051021;28;20103;-66
2022/12/08 08:06:26;;;;;;;14.30;3.10;;;;;;;;;;5054074;28;20049;-67
2022/12/08 08:08:53;;;;;;;23.77;3.42;;;;;;;;;;5034490;28;20128;-67
2022/12/08 08:11:19;;;;;;;17.25;4.25;;;;;;;;;;5051958;28;20044;-67
2022/12/08 08:13:45;;;;;;;18.33;4.10;;;;;;;;;;5014217;28;20401;-70
2022/12/08 08:16:14;;;;;;;26.90;5.38;;;;;;;;;;5052671;28;20047;-67
2022/12/08 08:18:40;;;;;;;18.88;4.60;;;;;;;;;;5053201;28;20053;-67
2022/12/08 08:21:06;;;;;;;21.05;4.05;;;;;;;;;;5054518;28;20037;-67
2022/12/08 08:23:33;;;;;;;13.40;3.42;;;;;;;;;;5053266;28;20074;-69
2022/12/08 08:25:59;;;;;;;15.20;4.60;;;;;;;;;;5053318;28;20094;-70
2022/12/08 08:28:26;;;;;;;14.20;3.30;;;;;;;;;;5054100;28;20497;-70
2022/12/08 08:30:52;;;;;;;13.73;3.20;;;;;;;;;;5036163;28;20102;-70
2022/12/08 08:33:18;;;;;;;10.77;3.25;;;;;;;;;;5052664;28;20048;-66
2022/12/08 08:35:44;;;;;;;16.73;3.60;;;;;;;;;;5053888;28;20033;-66
2022/12/08 08:38:10;;;;;;;12.52;2.92;;;;;;;;;;5050383;28;20044;-66
2022/12/08 08:40:45;;;;;;;14.95;4.20;;;;;;;;;;5052915;28;20037;-66
2022/12/08 08:43:35;;;;;;;12.65;3.20;;;;;;;;;;5036580;28;20035;-66
2022/12/08 08:46:01;;;;;;;15.77;4.35;;;;;;;;;;5052741;28;20095;-66
2022/12/08 08:48:29;;;;;;;12.65;3.80;;;;;;;;;;5036217;28;20044;-66
2022/12/08 08:50:56;;;;;;;15.23;3.47;;;;;;;;;;5036324;28;20377;-66
2022/12/08 08:53:22;;;;;;;13.98;3.67;;;;;;;;;;5036420;28;20041;-66
2022/12/08 08:55:49;;;;;;;18.27;3.78;;;;;;;;;;5052712;28;20120;-67
2022/12/08 08:58:15;;;;;;;10.07;3.15;;;;;;;;;;5052800;28;20032;-66
2022/12/08 09:00:44;;;;;;;8.32;3.00;;;;;;;;;;5036462;28;20044;-69
2022/12/08 09:03:10;;;;;;;12.57;2.78;;;;;;;;;;5033949;28;20045;-69
2022/12/08 09:05:40;;;;;;;18.83;5.15;;;;;;;;;;5035813;28;20079;-70
2022/12/08 09:08:06;;;;;;;19.25;4.97;;;;;;;;;;5050494;28;20497;-66
2022/12/08 09:10:32;;;;;;;22.20;5.40;;;;;;;;;;5050394;28;20071;-66
2022/12/08 09:12:58;;;;;;;26.38;5.82;;;;;;;;;;5053530;28;20091;-67
2022/12/08 09:15:28;;;;;;;19.40;3.75;;;;;;;;;;5052376;28;20036;-67
2022/12/08 09:17:54;;;;;;;18.73;4.63;;;;;;;;;;5015129;28;20124;-68
2022/12/08 09:20:20;;;;;;;16.40;4.32;;;;;;;;;;5052158;28;20163;-67
2022/12/08 09:22:56;;;;;;;18.70;4.28;;;;;;;;;;5035456;28;20039;-68
2022/12/08 09:25:22;;;;;;;10.52;3.60;;;;;;;;;;5035654;28;20041;-67
2022/12/08 09:27:51;;;;;;;10.93;3.40;;;;;;;;;;5036002;28;20090;-67
2022/12/08 09:30:23;;;;;;;14.77;3.60;;;;;;;;;;5052277;28;20493;-68
2022/12/08 09:32:52;;;;;;;14.25;3.40;;;;;;;;;;5049613;28;20090;-67
2022/12/08 09:35:32;;;;;;;16.02;3.95;;;;;;;;;;5051976;28;20051;-68
2022/12/08 09:38:01;;;;;;;9.50;3.80;;;;;;;;;;5017620;28;20029;-68
2022/12/08 09:40:30;;;;;;;8.38;3.20;;;;;;;;;;5018925;28;20036;-68
2022/12/08 09:43:05;;;;;;;14.43;3.20;;;;;;;;;;5052282;28;20039;-67
2022/12/08 09:45:44;;;;;;;8.48;2.72;;;;;;;;;;5035372;28;20101;-68
2022/12/08 09:48:23;;;;;;;12.48;3.50;;;;;;;;;;5034679;28;20075;-68
2022/12/08 09:50:52;;;;;;;17.90;3.80;;;;;;;;;;5051751;28;20032;-68
2022/12/08 09:53:21;;;;;;;13.93;3.03;;;;;;;;;;5053011;28;20068;-67
2022/12/08 09:55:51;;;;;;;17.40;3.47;;;;;;;;;;5052671;28;20041;-71
2022/12/08 09:58:25;;;;;;;15.77;3.40;;;;;;;;;;5051531;28;20025;-66
2022/12/08 10:00:51;;;;;;;12.48;3.53;;;;;;;;;;5051142;28;20108;-66
2022/12/08 10:03:17;;;;;;;12.27;3.30;;;;;;;;;;5051800;28;20087;-66
2022/12/08 10:05:55;;;;;;;20.80;3.40;;;;;;;;;;5052601;28;20041;-66
2022/12/08 10:08:28;;;;;;;18.95;4.00;;;;;;;;;;5032284;28;20080;-66
2022/12/08 10:10:56;;;;;;;;;;;;;;;;;;5050315;28;20048;-66
2022/12/08 10:13:22;;;;;;;12.05;3.00;;;;;;;;;;5082458;28;19917;-66
2022/12/08 10:16:06;;;;;;;14.50;3.40;;;;;;;;;;5051017;28;20048;-66
2022/12/08 10:18:33;;;;;;;17.05;3.72;;;;;;;;;;5049770;28;20057;-66
2022/12/08 10:21:17;;;;;;;13.55;3.58;;;;;;;;;;5053028;28;20049;-66
2022/12/08 10:23:55;;;;;;;13.07;3.47;;;;;;;;;;5046315;28;20332;-66
2022/12/08 10:26:21;;;;;;;17.58;3.50;;;;;;;;;;5050370;28;20040;-66
2022/12/08 10:28:48;;;;;;;14.35;3.70;;;;;;;;;;5050557;28;20401;-66
2022/12/08 10:31:15;;;;;;;20.70;4.05;;;;;;;;;;5050712;28;20039;-66
2022/12/08 10:33:41;;;;;;;11.65;3.92;;;;;;;;;;5053257;28;20048;-66
2022/12/08 10:36:09;;;;;;;7.57;2.50;;;;;;;;;;5069719;28;20040;-66
2022/12/08 10:38:36;;;;;;;9.10;2.97;;;;;;;;;;5055586;28;20041;-66
2022/12/08 10:41:23;;;;;;;17.60;2.90;;;;;;;;;;5055473;28;20033;-66
2022/12/08 10:43:49;;;;;;;15.50;2.22;;;;;;;;;;5037537;28;20045;-66
2022/12/08 10:46:19;;;;;;;6.97;1.75;;;;;;;;;;5053983;28;20043;-66
2022/12/08 10:48:50;;;;;;;8.57;2.00;;;;;;;;;;5054673;28;20406;-66
2022/12/08 10:51:24;;;;;;;10.82;2.30;;;;;;;;;;5056688;28;20113;-67
2022/12/08 10:53:50;;;;;;;12.73;2.58;;;;;;;;;;5055767;28;20036;-66
2022/12/08 10:56:16;;;;;;;8.48;2.10;;;;;;;;;;5055300;28;20048;-67
2022/12/08 10:58:44;;;;;;;11.10;1.98;;;;;;;;;;5055189;28;20106;-67
2022/12/08 11:01:13;;;;;;;11.07;2.47;;;;;;;;;;5055603;28;20041;-67
2022/12/08 11:03:50;;;;;;;12.60;3.15;;;;;;;;;;5055281;28;20047;-67
2022/12/08 11:06:20;;;;;;;14.95;3.83;;;;;;;;;;5054726;28;20513;-67
2022/12/08 11:08:48;;;;;;;13.77;3.30;;;;;;;;;;5054949;28;20114;-67
2022/12/08 11:11:14;;;;;;;9.15;3.92;;;;;;;;;;5055165;28;20044;-67
2022/12/08 11:13:41;;;;;;;19.55;2.60;;;;;;;;;;5055294;28;20043;-67
2022/12/08 11:16:07;;;;;;;13.48;3.08;;;;;;;;;;5056107;28;20516;-66
2022/12/08 11:18:41;;;;;;;5.38;2.67;;;;;;;;;;5054891;28;20383;-66
2022/12/08 11:21:12;;;;;;;6.78;3.17;;;;;;;;;;5038627;28;20045;-66
2022/12/08 11:23:40;;;;;;;6.90;2.47;;;;;;;;;;5038649;28;20066;-66
2022/12/08 11:26:12;;;;;;;7.97;2.92;;;;;;;;;;5055391;28;20513;-67
2022/12/08 11:28:38;;;;;;;12.05;2.60;;;;;;;;;;5056017;28;20392;-67
2022/12/08 11:31:10;;;;;;;13.27;2.67;;;;;;;;;;5054673;28;20037;-67
2022/12/08 11:33:36;;;;;;;21.03;2.60;;;;;;;;;;5054411;28;20076;-67
2022/12/08 11:36:04;;;;;;;9.63;2.95;;;;;;;;;;5054568;28;20045;-67
2022/12/08 11:38:31;;;;;;;7.22;2.50;;;;;;;;;;5054032;28;20047;-67
2022/12/08 11:41:10;;;;;;;11.68;3.03;;;;;;;;;;5054381;28;20037;-67
2022/12/08 11:43:54;;;;;;;8.05;3.40;;;;;;;;;;5037482;28;20048;-67
2022/12/08 11:46:41;;;;;;;10.90;3.28;;;;;;;;;;5054233;28;20183;-67
2022/12/08 11:49:11;;;;;;;24.25;3.22;;;;;;;;;;5037447;28;20044;-67
2022/12/08 11:51:47;;;;;;;7.60;2.60;;;;;;;;;;5053449;28;20055;-67
2022/12/08 11:54:29;;;;;;;10.02;3.03;;;;;;;;;;5053859;28;20163;-67
2022/12/08 11:56:57;;;;;;;10.23;2.88;;;;;;;;;;5052734;28;20041;-67
2022/12/08 11:59:40;;;;;;;7.07;2.83;;;;;;;;;;5051290;28;20080;-67
2022/12/08 12:02:18;;;;;;;11.05;2.53;;;;;;;;;;5053152;28;20068;-67
2022/12/08 12:04:48;;;;;;;11.98;2.75;;;;;;;;;;5051834;28;20029;-67
2022/12/08 12:07:17;;;;;;;7.10;2.40;;;;;;;;;;5053544;28;20145;-67
2022/12/08 12:09:55;;;;;;;9.98;2.08;;;;;;;;;;5036621;28;20040;-67
2022/12/08 12:12:36;;;;;;;5.95;2.03;;;;;;;;;;5053451;28;20075;-69
2022/12/08 12:15:21;;;;;;;12.68;3.22;;;;;;;;;;5051725;28;20098;-69
2022/12/08 12:17:50;;;;;;;14.15;3.00;;;;;;;;;;5052287;28;20505;-70
2022/12/08 12:20:19;;;;;;;8.25;2.42;;;;;;;;;;5052590;28;20045;-70
2022/12/08 12:22:48;;;;;;;10.52;2.00;;;;;;;;;;5052617;28;20040;-67
2022/12/08 12:25:22;;;;;;;6.72;2.00;;;;;;;;;;5052452;28;20040;-67
2022/12/08 12:27:49;;;;;;;7.55;1.83;;;;;;;;;;5035957;28;20047;-67
2022/12/08 12:30:21;;;;;;;5.15;1.92;;;;;;;;;;5054075;28;20036;-67
2022/12/08 12:32:51;;;;;;;2.85;1.90;;;;;;;;;;5052094;28;20028;-67
2022/12/08 12:35:43;;;;;;;10.60;3.25;;;;;;;;;;5052741;28;20072;-67
2022/12/08 12:41:11;;;;;;;11.20;2.60;;;;;;;;;;5051166;28;20044;-67
2022/12/08 12:43:38;;;;;;;4.70;2.00;;;;;;;;;;5053087;28;20040;-67
2022/12/08 12:46:22;;;;;;;3.13;1.40;;;;;;;;;;5036471;28;20041;-67
2022/12/08 12:48:49;;;;;;;5.53;1.33;;;;;;;;;;5053027;28;20056;-67
2022/12/08 12:51:30;;;;;;;8.05;1.58;;;;;;;;;;5086508;28;20098;-67
2022/12/08 12:54:16;;;;;;;9.90;1.90;;;;;;;;;;5043698;28;20041;-68
2022/12/08 12:56:47;;;;;;;12.98;2.85;;;;;;;;;;5035082;28;20041;-67
2022/12/08 12:59:32;;;;;;;4.43;1.60;;;;;;;;;;5053494;28;20040;-67
2022/12/08 13:01:58;;;;;;;8.93;1.42;;;;;;;;;;5052616;28;20044;-67
2022/12/08 13:04:28;;;;;;;8.48;1.63;;;;;;;;;;5052323;28;20029;-67
2022/12/08 13:06:55;;;;;;;1.77;1.20;;;;;;;;;;5049601;28;20214;-67
2022/12/08 13:09:32;;;;;;;5.22;1.75;;;;;;;;;;5048697;28;20474;-67
2022/12/08 13:12:00;;;;;;;3.55;1.38;;;;;;;;;;5052542;28;20052;-67
2022/12/08 13:14:28;;;;;;;6.75;1.40;;;;;;;;;;5052920;28;20098;-67
2022/12/08 13:16:55;;;;;;;6.85;1.35;;;;;;;;;;5052651;28;20505;-67
2022/12/08 13:19:21;;;;;;;5.38;1.10;;;;;;;;;;5053343;28;20522;-68
2022/12/08 13:21:48;;;;;;;7.78;2.05;;;;;;;;;;5052046;28;20037;-67
2022/12/08 13:24:19;;;;;;;2.15;1.40;;;;;;;;;;5053355;28;20039;-68
2022/12/08 13:26:46;;;;;;;2.60;1.40;;;;;;;;;;5051548;28;20063;-67
2022/12/08 13:29:19;;;;;;;3.00;1.00;;;;;;;;;;5053174;28;20441;-68
2022/12/08 13:31:47;;;;;;;6.80;1.45;;;;;;;;;;5053282;28;20028;-68
2022/12/08 13:34:19;;;;;;;3.58;1.35;;;;;;;;;;5052863;28;20043;-68
2022/12/08 13:37:03;;;;;;;4.78;1.20;;;;;;;;;;5051635;28;20075;-68
2022/12/08 13:39:38;;;;;;;1.30;1.20;;;;;;;;;;5050923;28;20136;-68
2022/12/08 13:42:24;;;;;;;6.40;1.30;;;;;;;;;;5074677;28;20042;-68
2022/12/08 13:44:50;;;;;;;6.18;1.25;;;;;;;;;;5076504;28;20041;-68
2022/12/08 13:47:19;;;;;;;4.65;1.35;;;;;;;;;;5048958;28;20044;-68
2022/12/08 13:50:11;;;;;;;4.22;1.23;;;;;;;;;;5052658;28;20041;-68
2022/12/08 13:52:43;;;;;;;9.30;1.65;;;;;;;;;;5050073;28;20055;-67
2022/12/08 13:55:18;;;;;;;4.28;1.27;;;;;;;;;;5052140;28;20040;-68
2022/12/08 13:57:47;;;;;;;3.55;1.30;;;;;;;;;;5052016;28;20155;-68
2022/12/08 14:00:15;;;;;;;4.72;1.77;;;;;;;;;;5052889;28;20127;-68
2022/12/08 14:02:45;;;;;;;3.38;1.33;;;;;;;;;;5051636;28;20056;-68
2022/12/08 14:05:11;;;;;;;7.15;1.38;;;;;;;;;;5052914;28;20072;-68
2022/12/08 14:07:38;;;;;;;3.03;1.20;;;;;;;;;;5052018;28;20123;-68
2022/12/08 14:10:08;;;;;;;6.57;2.20;;;;;;;;;;5051825;28;20098;-68
2022/12/08 14:12:34;;;;;;;5.55;2.45;;;;;;;;;;5034941;28;20128;-68
2022/12/08 14:15:01;;;;;;;9.23;2.20;;;;;;;;;;5052804;28;20045;-68
2022/12/08 14:17:28;;;;;;;9.32;2.10;;;;;;;;;;5033142;28;20059;-68
2022/12/08 14:19:54;;;;;;;4.10;1.90;;;;;;;;;;5032750;28;20057;-68
2022/12/08 14:22:20;;;;;;;4.93;1.55;;;;;;;;;;5049773;28;20041;-68
2022/12/08 14:24:47;;;;;;;5.03;1.55;;;;;;;;;;5052675;28;20040;-67
2022/12/08 14:27:15;;;;;;;6.28;1.90;;;;;;;;;;5051345;28;20174;-68
2022/12/08 14:29:51;;;;;;;7.15;1.70;;;;;;;;;;5052873;28;20393;-68
2022/12/08 14:32:31;;;;;;;4.93;2.00;;;;;;;;;;5034857;28;20043;-73
2022/12/08 14:35:07;;;;;;;5.65;1.67;;;;;;;;;;5051043;28;20175;-68
2022/12/08 14:37:34;;;;;;;6.72;2.00;;;;;;;;;;5051323;28;20049;-67
2022/12/08 14:40:02;;;;;;;6.43;2.08;;;;;;;;;;5051599;28;20049;-68
2022/12/08 14:42:29;;;;;;;3.10;1.83;;;;;;;;;;5051319;28;20065;-68
2022/12/08 14:44:56;;;;;;;11.95;2.33;;;;;;;;;;5052525;28;20389;-68
2022/12/08 14:47:22;;;;;;;7.72;2.20;;;;;;;;;;5052819;28;20043;-68
2022/12/08 14:49:48;;;;;;;8.73;4.68;;;;;;;;;;5051199;28;20508;-68
2022/12/08 14:52:14;;;;;;;4.13;2.85;;;;;;;;;;5052507;28;20444;-68
2022/12/08 14:54:42;;;;;;;5.88;2.30;;;;;;;;;;5052507;28;20040;-67
2022/12/08 14:57:13;;;;;;;5.85;2.55;;;;;;;;;;5051363;28;20481;-67